Accueil
METAR-TAF:

METAR-TAF

Aéroports :

Ağrı, Turquie

latitude: 39-39-16N, longitude: 43-01-38E, altitude: 1665 m

Observation

Le bulletin a été fait il y a 7 heures et 10 minutes, à 12:50 UTC
Vent 11 kt de sud-ouest
Température 20°C
Humidité 46%
Pression 1019 hPa
Visibilité 10 km ou plus
Nuages épars à une hauteur de 4000 ft

METAR: LTCO 271250Z 23011KT 9999 SCT040 20/08 Q1019

Heure: 23:00 (20:00 UTC)

Prévision

Le bulletin a été fait il y a 6 heures et 20 minutes, à 13:40 UTC
Prévision valable du 27 à 15 UTC au 27 à 24 UTC
Vent 12 kt de sud/sud-ouest
Visibilité 10 km ou plus
Nuages épars à une hauteur de 3500 ft
Temporairement
du 27 à 15 UTC au 27 à 18 UTC
Quelques nuages à une hauteur de 2500 ft, Cumulonimbus.
Nuages fragmentés à une hauteur de 3500 ft
orage, pluie faible,

TAF: LTCO 271340Z 2715/2724 21012KT 9999 SCT035 TEMPO 2715/2718 -TSRA FEW025CB BKN035

Observations et prévisions météorologiques de plus de 4000 aéroports (messages METAR et TAF).

Les stations disponibles sont représentées par des disques jaunes et rouges sur la carte.

Passer la souris dessus pour voir le nom de la station.

Cliquer dessus pour voir les observations et prévisions météorologiques.

Pour changer de carte: cliquez sur les boutons verts avec une croix noire pour zoomer, sur le bouton vert avec un tiret pour effectuer un zoom arrière, ou sur les flèches vertes pour les cartes adjacentes.


METAR-TAF: